createdAt,value
2019-04-14T00:01:54.495Z,85.90
2019-04-14T00:04:31.351Z,85.95
2019-04-14T00:07:03.719Z,85.54
2019-04-14T00:09:35.802Z,85.12
2019-04-14T00:12:10.486Z,84.44
2019-04-14T00:14:42.574Z,82.98
2019-04-14T00:17:15.157Z,84.92
2019-04-14T00:19:47.786Z,85.81
2019-04-14T00:22:20.543Z,86.03
2019-04-14T00:24:53.199Z,85.92
2019-04-14T00:27:25.950Z,85.95
2019-04-14T00:29:58.904Z,85.68
2019-04-14T00:32:33.398Z,85.85
2019-04-14T00:35:18.798Z,85.81
2019-04-14T00:38:13.800Z,86.03
2019-04-14T00:41:07.458Z,85.81
2019-04-14T00:43:52.772Z,85.59
2019-04-14T00:46:33.508Z,85.63
2019-04-14T00:49:04.987Z,85.32
2019-04-14T00:51:39.335Z,85.52
2019-04-14T00:54:11.351Z,85.96
2019-04-14T00:56:43.377Z,85.89
2019-04-14T00:59:16.321Z,85.96
2019-04-14T01:01:48.418Z,85.86
2019-04-14T01:04:20.849Z,85.86
2019-04-14T01:06:53.362Z,85.94
2019-04-14T01:09:26.129Z,85.58
2019-04-14T01:11:57.973Z,84.77
2019-04-14T01:14:29.881Z,83.53
2019-04-14T01:17:02.785Z,83.95
2019-04-14T01:19:35.252Z,84.10
2019-04-14T01:22:07.435Z,83.22
2019-04-14T01:24:40.386Z,83.80
2019-04-14T01:27:12.489Z,85.41
2019-04-14T01:29:44.898Z,86.78
2019-04-14T01:32:17.610Z,84.80
2019-04-14T01:34:51.191Z,84.38
2019-04-14T01:37:22.874Z,84.51
2019-04-14T01:39:54.690Z,85.10
2019-04-14T01:42:26.776Z,85.21
2019-04-14T01:44:59.259Z,85.29
2019-04-14T01:47:31.400Z,85.80
2019-04-14T01:50:03.775Z,87.50
2019-04-14T01:52:54.422Z,88.53
2019-04-14T01:55:37.493Z,88.03
2019-04-14T01:58:18.656Z,87.55
2019-04-14T02:01:19.520Z,86.53
2019-04-14T02:03:52.022Z,85.90
2019-04-14T02:06:24.562Z,85.72
2019-04-14T02:08:56.836Z,84.96
2019-04-14T02:11:29.746Z,84.50
2019-04-14T02:14:01.675Z,84.43
2019-04-14T02:16:40.323Z,84.54
2019-04-14T02:19:07.060Z,84.96
2019-04-14T02:21:38.970Z,84.66
2019-04-14T02:24:11.645Z,86.05
2019-04-14T02:26:43.866Z,86.53
2019-04-14T02:29:16.810Z,87.47
2019-04-14T02:32:17.319Z,87.16
2019-04-14T02:34:49.517Z,86.50
2019-04-14T02:37:30.124Z,85.52
2019-04-14T02:40:08.903Z,85.16
2019-04-14T02:42:35.563Z,85.10
2019-04-14T02:45:02.416Z,84.82
2019-04-14T02:48:03.592Z,85.14
2019-04-14T02:50:15.505Z,84.48
2019-04-14T02:52:46.564Z,84.33
2019-04-14T02:55:19.046Z,85.33
2019-04-14T02:57:52.766Z,83.43
2019-04-14T03:00:31.795Z,84.58
2019-04-14T03:03:01.355Z,85.48
2019-04-14T03:05:35.853Z,84.47
2019-04-14T03:08:13.130Z,85.67
2019-04-14T03:10:40.238Z,86.03
2019-04-14T03:15:58.850Z,84.44
2019-04-14T03:21:41.974Z,84.02
2019-04-14T03:24:30.747Z,82.27
2019-04-14T03:27:13.427Z,81.70
2019-04-14T03:29:52.004Z,82.18
2019-04-14T03:35:13.210Z,82.59
2019-04-14T03:37:45.300Z,84.04
2019-04-14T03:40:01.604Z,84.40
2019-04-14T03:42:48.585Z,84.91
2019-04-14T03:45:16.313Z,85.35
2019-04-14T03:47:43.974Z,83.25
2019-04-14T03:50:21.620Z,81.56
2019-04-14T03:55:16.042Z,82.73
2019-04-14T03:57:34.567Z,82.30
2019-04-14T04:00:07.492Z,81.70
2019-04-14T04:02:40.215Z,81.78
2019-04-14T04:05:12.838Z,81.81
2019-04-14T04:07:45.378Z,81.40
2019-04-14T04:10:19.129Z,80.48
2019-04-14T04:12:51.158Z,80.64
2019-04-14T04:15:23.526Z,80.54
2019-04-14T04:18:02.601Z,80.17
2019-04-14T04:20:52.457Z,78.29
2019-04-14T04:23:31.389Z,78.07
2019-04-14T04:26:26.241Z,79.17
2019-04-14T04:29:11.230Z,80.67
2019-04-14T04:32:02.065Z,80.52
2019-04-14T04:34:59.844Z,81.10
2019-04-14T04:37:54.170Z,81.00
2019-04-14T04:40:29.402Z,81.18
2019-04-14T04:43:01.281Z,81.02
2019-04-14T04:45:34.189Z,81.49
2019-04-14T04:48:06.680Z,80.66
2019-04-14T04:50:38.874Z,81.00
2019-04-14T04:53:11.618Z,82.17
2019-04-14T04:55:43.874Z,82.42
2019-04-14T04:58:15.680Z,82.01
2019-04-14T05:00:52.261Z,81.94
2019-04-14T05:03:23.340Z,81.93
2019-04-14T05:06:50.589Z,81.79
2019-04-14T05:09:33.834Z,81.63
2019-04-14T05:12:26.837Z,82.18
2019-04-14T05:15:16.277Z,81.79
2019-04-14T05:17:49.559Z,81.19
2019-04-14T05:20:22.391Z,80.67
2019-04-14T05:22:55.033Z,80.68
2019-04-14T05:25:27.567Z,80.77
2019-04-14T05:28:00.360Z,79.87
2019-04-14T05:30:32.855Z,80.06
2019-04-14T05:33:05.274Z,79.95
2019-04-14T05:35:38.037Z,78.83
2019-04-14T05:38:11.062Z,78.44
2019-04-14T05:40:42.937Z,79.24
2019-04-14T05:43:28.264Z,78.59
2019-04-14T05:45:48.334Z,77.10
2019-04-14T05:48:20.479Z,76.92
2019-04-14T05:50:53.324Z,77.23
2019-04-14T05:53:26.245Z,76.72
2019-04-14T05:55:59.270Z,76.71
2019-04-14T05:58:31.784Z,76.60
2019-04-14T06:01:04.734Z,77.16
2019-04-14T06:03:36.870Z,76.94
2019-04-14T06:06:08.726Z,77.21
2019-04-14T06:08:40.560Z,77.24
2019-04-14T06:11:12.288Z,75.99
2019-04-14T06:13:44.303Z,75.94
2019-04-14T06:16:16.048Z,76.14
2019-04-14T06:18:47.792Z,75.58
2019-04-14T06:21:19.513Z,75.92
2019-04-14T06:23:51.278Z,76.11
2019-04-14T06:26:23.088Z,75.64
2019-04-14T06:28:54.934Z,75.63
2019-04-14T06:31:38.042Z,75.50
2019-04-14T06:34:23.572Z,75.85
2019-04-14T06:37:13.343Z,75.34
2019-04-14T06:39:47.887Z,75.91
2019-04-14T06:42:19.729Z,75.64
2019-04-14T06:44:51.501Z,76.67
2019-04-14T06:47:23.265Z,77.60
2019-04-14T06:49:55.022Z,77.18
2019-04-14T06:52:26.774Z,75.82
2019-04-14T06:54:58.794Z,75.34
2019-04-14T06:57:30.576Z,74.91
2019-04-14T07:00:02.357Z,75.79
2019-04-14T07:02:35.802Z,75.28
2019-04-14T07:05:07.755Z,75.01
2019-04-14T07:07:39.481Z,74.22
2019-04-14T07:10:12.666Z,74.15
2019-04-14T07:12:44.450Z,74.62
2019-04-14T07:15:18.320Z,75.01
2019-04-14T07:17:50.050Z,74.22
2019-04-14T07:20:21.796Z,76.07
2019-04-14T07:22:53.724Z,77.08
2019-04-14T07:25:25.553Z,75.60
2019-04-14T07:27:57.602Z,75.48
2019-04-14T07:30:39.186Z,75.05
2019-04-14T07:33:39.887Z,73.73
2019-04-14T07:36:33.669Z,74.07
2019-04-14T07:39:25.012Z,73.22
2019-04-14T07:42:04.151Z,73.76
2019-04-14T07:44:47.515Z,73.59
2019-04-14T07:47:27.037Z,70.62
2019-04-14T07:50:21.585Z,71.49
2019-04-14T07:53:18.341Z,69.93
2019-04-14T07:56:24.531Z,69.57
2019-04-14T07:59:02.155Z,68.04
2019-04-14T08:01:49.975Z,68.95
2019-04-14T08:04:26.079Z,67.34
2019-04-14T08:06:59.449Z,68.60
2019-04-14T08:09:31.285Z,66.97
2019-04-14T08:12:03.037Z,68.98
2019-04-14T08:14:34.832Z,67.10
2019-04-14T08:17:07.670Z,67.57
2019-04-14T08:19:39.770Z,67.74
2019-04-14T08:22:12.489Z,67.94
2019-04-14T08:24:44.248Z,67.33
2019-04-14T08:27:16.050Z,66.64
2019-04-14T08:29:48.144Z,67.01
2019-04-14T08:32:20.174Z,67.73
2019-04-14T08:35:55.527Z,68.16
2019-04-14T08:38:27.738Z,66.44
2019-04-14T08:40:59.862Z,65.84
2019-04-14T08:43:39.416Z,65.37
2019-04-14T08:46:33.197Z,64.48
2019-04-14T08:49:17.666Z,65.51
2019-04-14T08:51:55.767Z,65.33
2019-04-14T08:54:51.786Z,64.97
2019-04-14T08:57:29.082Z,67.47
2019-04-14T09:00:18.480Z,65.97
2019-04-14T09:02:58.710Z,66.52
2019-04-14T09:05:45.223Z,66.20
2019-04-14T09:08:24.671Z,64.86
2019-04-14T09:10:59.279Z,65.87
2019-04-14T09:13:31.398Z,64.15
2019-04-14T09:16:03.605Z,67.54
2019-04-14T09:18:35.791Z,64.81
2019-04-14T09:21:08.247Z,64.82
2019-04-14T09:23:40.386Z,61.68
2019-04-14T09:26:12.532Z,61.15
2019-04-14T09:28:44.676Z,57.88
2019-04-14T09:31:17.978Z,59.22
2019-04-14T09:33:50.106Z,57.31
2019-04-14T09:36:22.313Z,57.27
2019-04-14T09:38:54.696Z,58.58
2019-04-14T09:41:26.923Z,57.87
2019-04-14T09:43:59.319Z,58.10
2019-04-14T09:46:31.553Z,58.72
2019-04-14T09:49:04.888Z,59.88
2019-04-14T09:51:37.108Z,60.68
2019-04-14T09:54:09.229Z,56.46
2019-04-14T09:56:41.444Z,60.13
2019-04-14T09:59:13.565Z,59.50
2019-04-14T10:01:45.776Z,58.16
2019-04-14T10:04:17.983Z,56.80
2019-04-14T10:06:50.107Z,57.13
2019-04-14T10:09:22.325Z,56.24
2019-04-14T10:11:56.376Z,55.43
2019-04-14T10:14:28.584Z,54.30
2019-04-14T10:17:01.450Z,56.27
2019-04-14T10:19:34.833Z,56.42
2019-04-14T10:22:07.113Z,55.78
2019-04-14T10:24:39.302Z,56.03
2019-04-14T10:27:12.256Z,56.45
2019-04-14T10:29:44.392Z,53.18
2019-04-14T10:32:16.665Z,56.36
2019-04-14T10:34:48.815Z,55.45
2019-04-14T10:37:21.047Z,54.49
2019-04-14T10:39:53.198Z,53.92
2019-04-14T10:42:25.485Z,54.57
2019-04-14T10:44:57.767Z,54.50
2019-04-14T10:47:29.971Z,55.47
2019-04-14T10:50:02.188Z,54.05
2019-04-14T10:52:34.426Z,54.08
2019-04-14T10:55:07.393Z,52.16
2019-04-14T10:57:40.534Z,51.25
2019-04-14T11:00:15.339Z,51.53
2019-04-14T11:02:47.526Z,51.32
2019-04-14T11:05:19.719Z,53.21
2019-04-14T11:07:51.836Z,50.92
2019-04-14T11:10:24.042Z,49.40
2019-04-14T11:12:56.226Z,50.97
2019-04-14T11:15:28.361Z,50.19
2019-04-14T11:20:26.484Z,50.46
2019-04-14T11:23:17.746Z,51.58
2019-04-14T11:26:09.250Z,51.37
2019-04-14T11:29:00.342Z,50.54
2019-04-14T11:32:02.153Z,51.50
2019-04-14T11:34:57.132Z,53.31
2019-04-14T11:39:36.833Z,49.55
2019-04-14T11:42:27.709Z,49.47
2019-04-14T11:45:18.591Z,51.81
2019-04-14T11:48:09.250Z,49.27
2019-04-14T11:50:59.831Z,47.96
2019-04-14T11:53:50.390Z,48.88
2019-04-14T11:56:40.708Z,49.76
2019-04-14T11:59:38.180Z,49.09
2019-04-14T12:02:56.277Z,48.71
2019-04-14T12:06:11.663Z,52.41
2019-04-14T12:09:13.570Z,47.70
2019-04-14T12:12:05.360Z,46.84
2019-04-14T12:14:55.887Z,45.40
2019-04-14T12:17:46.170Z,48.05
2019-04-14T12:20:36.683Z,48.20
2019-04-14T12:23:27.322Z,47.68
2019-04-14T12:26:17.766Z,48.33
2019-04-14T12:29:09.606Z,48.02
2019-04-14T12:32:15.078Z,48.53
2019-04-14T12:35:06.423Z,48.65
2019-04-14T12:37:57.759Z,47.45
2019-04-14T12:40:49.374Z,48.14
2019-04-14T12:43:59.437Z,50.01
2019-04-14T12:47:21.056Z,50.23
2019-04-14T12:50:19.543Z,49.10
2019-04-14T12:54:33.378Z,49.30
2019-04-14T12:57:35.475Z,50.55
